Newton Hamilton, Pennsylvania
Current Conditions -  °F | °C
As of 7:53 PM on Wednesday 17 Dec 2014 (Local Time) from KAOO Reporting Station
Overcast Overcast  
Wind Chill: 23°   Ceiling: 2500
Heat Index: 32°   Visibility: 10mi
Dew Point: 23°   Wind: 12mph
Humidity: 69%   Direction: 280°W
Pressure: 30.02"   Gusts: 28mph
Location:  40.39°N, 77.84°W
Report Text: KAOO 180053Z AUTO 28010G24KT 10SM OVC025 00/M05 A3002 RMK AO2 SLP179 T00001050
Loading
Personal Weather Stations






























Interactive Weather Map New forecast layout! Learn more

10-Day Weather Forecast

Advertisements
Track Severe Weather on mobile